sensor_id;sensor_type;location;lat;lon;timestamp;P1;durP1;ratioP1;P2;durP2;ratioP2
7501;SDS011;3792;47.740;7.606;2023-04-24T00:01:10;1.80;;;0.60;;
7501;SDS011;3792;47.740;7.606;2023-04-24T00:03:38;1.83;;;0.70;;
7501;SDS011;3792;47.740;7.606;2023-04-24T00:06:06;0.63;;;0.63;;
7501;SDS011;3792;47.740;7.606;2023-04-24T00:08:34;0.57;;;0.50;;
7501;SDS011;3792;47.740;7.606;2023-04-24T00:11:01;0.70;;;0.70;;
7501;SDS011;3792;47.740;7.606;2023-04-24T00:13:28;0.47;;;0.47;;
7501;SDS011;3792;47.740;7.606;2023-04-24T00:15:55;0.77;;;0.47;;
7501;SDS011;3792;47.740;7.606;2023-04-24T00:18:22;0.93;;;0.70;;
7501;SDS011;3792;47.740;7.606;2023-04-24T00:20:49;1.70;;;0.50;;
7501;SDS011;3792;47.740;7.606;2023-04-24T00:23:18;1.80;;;0.53;;
7501;SDS011;3792;47.740;7.606;2023-04-24T00:25:45;0.50;;;0.50;;
7501;SDS011;3792;47.740;7.606;2023-04-24T00:28:12;1.77;;;0.60;;
7501;SDS011;3792;47.740;7.606;2023-04-24T00:30:39;2.57;;;0.60;;
7501;SDS011;3792;47.740;7.606;2023-04-24T00:33:07;0.50;;;0.50;;
7501;SDS011;3792;47.740;7.606;2023-04-24T00:35:34;0.97;;;0.53;;
7501;SDS011;3792;47.740;7.606;2023-04-24T00:38:01;0.50;;;0.50;;
7501;SDS011;3792;47.740;7.606;2023-04-24T00:40:30;0.40;;;0.40;;
7501;SDS011;3792;47.740;7.606;2023-04-24T00:42:57;0.50;;;0.50;;
7501;SDS011;3792;47.740;7.606;2023-04-24T00:45:24;0.87;;;0.50;;
7501;SDS011;3792;47.740;7.606;2023-04-24T00:47:52;0.57;;;0.50;;
7501;SDS011;3792;47.740;7.606;2023-04-24T00:50:20;0.60;;;0.60;;
7501;SDS011;3792;47.740;7.606;2023-04-24T00:52:47;0.40;;;0.40;;
7501;SDS011;3792;47.740;7.606;2023-04-24T00:55:15;0.80;;;0.50;;
7501;SDS011;3792;47.740;7.606;2023-04-24T00:57:43;0.67;;;0.50;;
7501;SDS011;3792;47.740;7.606;2023-04-24T01:00:11;1.27;;;0.80;;
7501;SDS011;3792;47.740;7.606;2023-04-24T01:02:40;0.60;;;0.60;;
7501;SDS011;3792;47.740;7.606;2023-04-24T01:05:10;2.23;;;0.60;;
7501;SDS011;3792;47.740;7.606;2023-04-24T01:07:38;0.40;;;0.40;;
7501;SDS011;3792;47.740;7.606;2023-04-24T01:10:09;1.03;;;0.50;;
7501;SDS011;3792;47.740;7.606;2023-04-24T01:12:36;1.07;;;0.70;;
7501;SDS011;3792;47.740;7.606;2023-04-24T01:15:06;0.50;;;0.50;;
7501;SDS011;3792;47.740;7.606;2023-04-24T01:17:34;1.73;;;0.70;;
7501;SDS011;3792;47.740;7.606;2023-04-24T01:20:01;2.33;;;0.70;;
7501;SDS011;3792;47.740;7.606;2023-04-24T01:22:32;0.97;;;0.50;;
7501;SDS011;3792;47.740;7.606;2023-04-24T01:24:59;1.20;;;0.53;;
7501;SDS011;3792;47.740;7.606;2023-04-24T01:27:26;0.67;;;0.50;;
7501;SDS011;3792;47.740;7.606;2023-04-24T01:29:54;2.00;;;0.67;;
7501;SDS011;3792;47.740;7.606;2023-04-24T01:32:21;1.03;;;0.67;;
7501;SDS011;3792;47.740;7.606;2023-04-24T01:34:48;0.60;;;0.60;;
7501;SDS011;3792;47.740;7.606;2023-04-24T01:37:16;0.90;;;0.50;;
7501;SDS011;3792;47.740;7.606;2023-04-24T01:39:45;2.47;;;0.97;;
7501;SDS011;3792;47.740;7.606;2023-04-24T01:42:12;2.00;;;0.73;;
7501;SDS011;3792;47.740;7.606;2023-04-24T01:44:40;0.67;;;0.50;;
7501;SDS011;3792;47.740;7.606;2023-04-24T01:47:08;1.93;;;0.70;;
7501;SDS011;3792;47.740;7.606;2023-04-24T01:49:35;1.87;;;0.77;;
7501;SDS011;3792;47.740;7.606;2023-04-24T01:52:03;2.30;;;0.50;;
7501;SDS011;3792;47.740;7.606;2023-04-24T01:54:30;2.63;;;0.57;;
7501;SDS011;3792;47.740;7.606;2023-04-24T01:56:58;1.40;;;0.70;;
7501;SDS011;3792;47.740;7.606;2023-04-24T01:59:27;0.70;;;0.70;;
7501;SDS011;3792;47.740;7.606;2023-04-24T02:01:54;1.53;;;0.70;;
7501;SDS011;3792;47.740;7.606;2023-04-24T02:04:21;1.90;;;0.60;;
7501;SDS011;3792;47.740;7.606;2023-04-24T02:06:48;0.70;;;0.60;;
7501;SDS011;3792;47.740;7.606;2023-04-24T02:09:16;0.90;;;0.70;;
7501;SDS011;3792;47.740;7.606;2023-04-24T02:11:43;0.53;;;0.50;;
7501;SDS011;3792;47.740;7.606;2023-04-24T02:14:11;2.27;;;0.70;;
7501;SDS011;3792;47.740;7.606;2023-04-24T02:16:38;0.83;;;0.80;;
7501;SDS011;3792;47.740;7.606;2023-04-24T02:19:05;2.07;;;0.73;;
7501;SDS011;3792;47.740;7.606;2023-04-24T02:21:33;0.50;;;0.50;;
7501;SDS011;3792;47.740;7.606;2023-04-24T02:24:00;2.07;;;0.70;;
7501;SDS011;3792;47.740;7.606;2023-04-24T02:26:27;1.43;;;0.80;;
7501;SDS011;3792;47.740;7.606;2023-04-24T02:28:54;2.00;;;0.73;;
7501;SDS011;3792;47.740;7.606;2023-04-24T02:31:22;1.00;;;0.60;;
7501;SDS011;3792;47.740;7.606;2023-04-24T02:33:49;1.43;;;0.90;;
7501;SDS011;3792;47.740;7.606;2023-04-24T02:36:16;1.30;;;0.70;;
7501;SDS011;3792;47.740;7.606;2023-04-24T02:38:43;1.63;;;0.90;;
7501;SDS011;3792;47.740;7.606;2023-04-24T02:41:10;0.90;;;0.67;;
7501;SDS011;3792;47.740;7.606;2023-04-24T02:43:37;1.10;;;0.90;;
7501;SDS011;3792;47.740;7.606;2023-04-24T02:46:04;2.27;;;0.83;;
7501;SDS011;3792;47.740;7.606;2023-04-24T02:48:33;3.20;;;0.73;;
7501;SDS011;3792;47.740;7.606;2023-04-24T02:51:00;2.57;;;0.97;;
7501;SDS011;3792;47.740;7.606;2023-04-24T02:53:27;1.27;;;0.70;;
7501;SDS011;3792;47.740;7.606;2023-04-24T02:55:55;3.50;;;1.00;;
7501;SDS011;3792;47.740;7.606;2023-04-24T02:58:22;2.10;;;1.00;;
7501;SDS011;3792;47.740;7.606;2023-04-24T03:00:52;1.07;;;0.70;;
7501;SDS011;3792;47.740;7.606;2023-04-24T03:03:20;1.43;;;0.60;;
7501;SDS011;3792;47.740;7.606;2023-04-24T03:05:48;1.10;;;1.00;;
7501;SDS011;3792;47.740;7.606;2023-04-24T03:08:15;3.67;;;0.93;;
7501;SDS011;3792;47.740;7.606;2023-04-24T03:10:42;2.53;;;0.90;;
7501;SDS011;3792;47.740;7.606;2023-04-24T03:13:09;0.87;;;0.87;;
7501;SDS011;3792;47.740;7.606;2023-04-24T03:15:36;2.63;;;0.77;;
7501;SDS011;3792;47.740;7.606;2023-04-24T03:18:03;3.20;;;1.00;;
7501;SDS011;3792;47.740;7.606;2023-04-24T03:20:30;3.87;;;1.53;;
7501;SDS011;3792;47.740;7.606;2023-04-24T03:23:04;2.47;;;0.90;;
7501;SDS011;3792;47.740;7.606;2023-04-24T03:25:31;4.13;;;0.90;;
7501;SDS011;3792;47.740;7.606;2023-04-24T03:27:58;1.93;;;0.90;;
7501;SDS011;3792;47.740;7.606;2023-04-24T03:30:25;2.33;;;0.90;;
7501;SDS011;3792;47.740;7.606;2023-04-24T03:32:52;1.33;;;0.90;;
7501;SDS011;3792;47.740;7.606;2023-04-24T03:35:19;2.27;;;0.93;;
7501;SDS011;3792;47.740;7.606;2023-04-24T03:37:47;1.27;;;0.80;;
7501;SDS011;3792;47.740;7.606;2023-04-24T03:40:15;2.43;;;1.10;;
7501;SDS011;3792;47.740;7.606;2023-04-24T03:42:42;0.80;;;0.80;;
7501;SDS011;3792;47.740;7.606;2023-04-24T03:45:09;1.53;;;0.97;;
7501;SDS011;3792;47.740;7.606;2023-04-24T03:47:36;1.70;;;0.90;;
7501;SDS011;3792;47.740;7.606;2023-04-24T03:50:04;3.13;;;1.10;;
7501;SDS011;3792;47.740;7.606;2023-04-24T03:52:31;1.37;;;0.70;;
7501;SDS011;3792;47.740;7.606;2023-04-24T03:54:58;2.47;;;1.07;;
7501;SDS011;3792;47.740;7.606;2023-04-24T03:57:27;1.13;;;1.00;;
7501;SDS011;3792;47.740;7.606;2023-04-24T03:59:54;2.60;;;1.00;;
7501;SDS011;3792;47.740;7.606;2023-04-24T04:02:21;2.67;;;1.30;;
7501;SDS011;3792;47.740;7.606;2023-04-24T04:04:48;2.70;;;0.90;;
7501;SDS011;3792;47.740;7.606;2023-04-24T04:07:15;1.23;;;1.00;;
7501;SDS011;3792;47.740;7.606;2023-04-24T04:09:42;1.57;;;0.70;;
7501;SDS011;3792;47.740;7.606;2023-04-24T04:12:09;1.03;;;0.60;;
7501;SDS011;3792;47.740;7.606;2023-04-24T04:14:37;1.20;;;1.00;;
7501;SDS011;3792;47.740;7.606;2023-04-24T04:17:04;1.97;;;1.00;;
7501;SDS011;3792;47.740;7.606;2023-04-24T04:19:31;2.53;;;1.30;;
7501;SDS011;3792;47.740;7.606;2023-04-24T04:21:58;2.00;;;1.20;;
7501;SDS011;3792;47.740;7.606;2023-04-24T04:24:25;1.97;;;1.10;;
7501;SDS011;3792;47.740;7.606;2023-04-24T04:26:52;3.17;;;0.90;;
7501;SDS011;3792;47.740;7.606;2023-04-24T04:29:21;1.53;;;1.30;;
7501;SDS011;3792;47.740;7.606;2023-04-24T04:31:50;2.20;;;1.17;;
7501;SDS011;3792;47.740;7.606;2023-04-24T04:34:17;1.43;;;1.10;;
7501;SDS011;3792;47.740;7.606;2023-04-24T04:36:44;2.53;;;1.27;;
7501;SDS011;3792;47.740;7.606;2023-04-24T04:39:11;1.87;;;1.40;;
7501;SDS011;3792;47.740;7.606;2023-04-24T04:41:40;2.00;;;1.47;;
7501;SDS011;3792;47.740;7.606;2023-04-24T04:44:07;2.07;;;1.23;;
7501;SDS011;3792;47.740;7.606;2023-04-24T04:46:34;2.30;;;1.40;;
7501;SDS011;3792;47.740;7.606;2023-04-24T04:49:04;2.43;;;1.70;;
7501;SDS011;3792;47.740;7.606;2023-04-24T04:51:33;2.00;;;1.30;;
7501;SDS011;3792;47.740;7.606;2023-04-24T04:54:00;1.70;;;1.50;;
7501;SDS011;3792;47.740;7.606;2023-04-24T04:56:27;2.97;;;1.63;;
7501;SDS011;3792;47.740;7.606;2023-04-24T04:58:54;2.77;;;1.53;;
7501;SDS011;3792;47.740;7.606;2023-04-24T05:01:22;1.60;;;1.43;;
7501;SDS011;3792;47.740;7.606;2023-04-24T05:03:49;2.00;;;1.80;;
7501;SDS011;3792;47.740;7.606;2023-04-24T05:06:17;1.90;;;1.50;;
7501;SDS011;3792;47.740;7.606;2023-04-24T05:08:45;2.13;;;1.63;;
7501;SDS011;3792;47.740;7.606;2023-04-24T05:11:13;1.70;;;1.53;;
7501;SDS011;3792;47.740;7.606;2023-04-24T05:13:41;3.33;;;1.83;;
7501;SDS011;3792;47.740;7.606;2023-04-24T05:16:08;3.13;;;1.90;;
7501;SDS011;3792;47.740;7.606;2023-04-24T05:18:35;3.00;;;1.80;;
7501;SDS011;3792;47.740;7.606;2023-04-24T05:21:02;1.73;;;1.63;;
7501;SDS011;3792;47.740;7.606;2023-04-24T05:23:30;1.93;;;1.80;;
7501;SDS011;3792;47.740;7.606;2023-04-24T05:25:57;4.93;;;1.90;;
7501;SDS011;3792;47.740;7.606;2023-04-24T05:28:24;2.77;;;2.33;;
7501;SDS011;3792;47.740;7.606;2023-04-24T05:30:53;2.20;;;1.83;;
7501;SDS011;3792;47.740;7.606;2023-04-24T05:33:20;2.27;;;2.00;;
7501;SDS011;3792;47.740;7.606;2023-04-24T05:35:48;2.27;;;1.83;;
7501;SDS011;3792;47.740;7.606;2023-04-24T05:38:15;2.17;;;2.00;;
7501;SDS011;3792;47.740;7.606;2023-04-24T05:40:44;3.43;;;1.80;;
7501;SDS011;3792;47.740;7.606;2023-04-24T05:43:11;2.33;;;1.67;;
7501;SDS011;3792;47.740;7.606;2023-04-24T05:45:39;2.73;;;2.00;;
7501;SDS011;3792;47.740;7.606;2023-04-24T05:48:06;1.73;;;1.63;;
7501;SDS011;3792;47.740;7.606;2023-04-24T05:50:33;1.93;;;1.80;;
7501;SDS011;3792;47.740;7.606;2023-04-24T05:53:00;2.57;;;1.90;;
7501;SDS011;3792;47.740;7.606;2023-04-24T05:55:28;2.10;;;1.90;;
7501;SDS011;3792;47.740;7.606;2023-04-24T05:57:57;3.23;;;2.17;;
7501;SDS011;3792;47.740;7.606;2023-04-24T06:00:25;1.80;;;1.70;;
7501;SDS011;3792;47.740;7.606;2023-04-24T06:02:52;1.93;;;1.83;;
7501;SDS011;3792;47.740;7.606;2023-04-24T06:05:19;3.43;;;2.30;;
7501;SDS011;3792;47.740;7.606;2023-04-24T06:07:46;2.40;;;2.20;;
7501;SDS011;3792;47.740;7.606;2023-04-24T06:10:13;5.13;;;3.00;;
7501;SDS011;3792;47.740;7.606;2023-04-24T06:12:40;3.03;;;2.57;;
7501;SDS011;3792;47.740;7.606;2023-04-24T06:15:09;1.80;;;1.60;;
7501;SDS011;3792;47.740;7.606;2023-04-24T06:17:36;2.07;;;1.87;;
7501;SDS011;3792;47.740;7.606;2023-04-24T06:20:04;1.73;;;1.63;;
7501;SDS011;3792;47.740;7.606;2023-04-24T06:22:33;1.97;;;1.70;;
7501;SDS011;3792;47.740;7.606;2023-04-24T06:25:00;2.00;;;1.80;;
7501;SDS011;3792;47.740;7.606;2023-04-24T06:27:27;1.67;;;1.57;;
7501;SDS011;3792;47.740;7.606;2023-04-24T06:30:01;1.70;;;1.60;;
7501;SDS011;3792;47.740;7.606;2023-04-24T06:32:31;1.70;;;1.60;;
7501;SDS011;3792;47.740;7.606;2023-04-24T06:34:58;1.73;;;1.60;;
7501;SDS011;3792;47.740;7.606;2023-04-24T06:37:25;3.03;;;1.70;;
7501;SDS011;3792;47.740;7.606;2023-04-24T06:39:52;2.03;;;1.70;;
7501;SDS011;3792;47.740;7.606;2023-04-24T06:42:19;1.47;;;1.47;;
7501;SDS011;3792;47.740;7.606;2023-04-24T06:44:47;3.20;;;1.30;;
7501;SDS011;3792;47.740;7.606;2023-04-24T06:47:14;2.70;;;2.23;;
7501;SDS011;3792;47.740;7.606;2023-04-24T06:49:42;2.73;;;2.03;;
7501;SDS011;3792;47.740;7.606;2023-04-24T06:52:09;3.23;;;1.83;;
7501;SDS011;3792;47.740;7.606;2023-04-24T06:54:36;4.40;;;1.70;;
7501;SDS011;3792;47.740;7.606;2023-04-24T06:57:03;3.63;;;1.90;;
7501;SDS011;3792;47.740;7.606;2023-04-24T06:59:30;2.00;;;1.70;;
7501;SDS011;3792;47.740;7.606;2023-04-24T07:01:57;2.33;;;2.03;;
7501;SDS011;3792;47.740;7.606;2023-04-24T07:04:24;3.20;;;1.60;;
7501;SDS011;3792;47.740;7.606;2023-04-24T07:06:53;4.37;;;1.93;;
7501;SDS011;3792;47.740;7.606;2023-04-24T07:09:21;2.67;;;1.83;;
7501;SDS011;3792;47.740;7.606;2023-04-24T07:11:48;3.20;;;2.03;;
7501;SDS011;3792;47.740;7.606;2023-04-24T07:14:16;6.83;;;2.23;;
7501;SDS011;3792;47.740;7.606;2023-04-24T07:16:43;2.43;;;1.67;;
7501;SDS011;3792;47.740;7.606;2023-04-24T07:19:11;2.87;;;1.93;;
7501;SDS011;3792;47.740;7.606;2023-04-24T07:21:38;2.27;;;2.00;;
7501;SDS011;3792;47.740;7.606;2023-04-24T07:24:06;5.13;;;2.03;;
7501;SDS011;3792;47.740;7.606;2023-04-24T07:26:36;2.33;;;2.10;;
7501;SDS011;3792;47.740;7.606;2023-04-24T07:29:04;2.57;;;2.00;;
7501;SDS011;3792;47.740;7.606;2023-04-24T07:31:31;5.20;;;2.40;;
7501;SDS011;3792;47.740;7.606;2023-04-24T07:33:58;4.53;;;2.30;;
7501;SDS011;3792;47.740;7.606;2023-04-24T07:36:25;3.13;;;2.10;;
7501;SDS011;3792;47.740;7.606;2023-04-24T07:38:53;3.20;;;2.33;;
7501;SDS011;3792;47.740;7.606;2023-04-24T07:41:23;3.10;;;2.00;;
7501;SDS011;3792;47.740;7.606;2023-04-24T07:43:50;2.93;;;2.37;;
7501;SDS011;3792;47.740;7.606;2023-04-24T07:46:17;3.10;;;2.53;;
7501;SDS011;3792;47.740;7.606;2023-04-24T07:48:44;3.10;;;2.40;;
7501;SDS011;3792;47.740;7.606;2023-04-24T07:51:13;4.13;;;2.17;;
7501;SDS011;3792;47.740;7.606;2023-04-24T07:53:40;3.40;;;2.20;;
7501;SDS011;3792;47.740;7.606;2023-04-24T07:56:07;6.07;;;2.37;;
7501;SDS011;3792;47.740;7.606;2023-04-24T07:58:35;4.70;;;2.00;;
7501;SDS011;3792;47.740;7.606;2023-04-24T08:01:02;3.30;;;1.93;;
7501;SDS011;3792;47.740;7.606;2023-04-24T08:03:30;4.03;;;2.00;;
7501;SDS011;3792;47.740;7.606;2023-04-24T08:05:57;4.30;;;1.80;;
7501;SDS011;3792;47.740;7.606;2023-04-24T08:08:24;3.33;;;1.60;;
7501;SDS011;3792;47.740;7.606;2023-04-24T08:10:51;2.30;;;2.10;;
7501;SDS011;3792;47.740;7.606;2023-04-24T08:13:18;4.00;;;1.90;;
7501;SDS011;3792;47.740;7.606;2023-04-24T08:15:47;3.40;;;1.80;;
7501;SDS011;3792;47.740;7.606;2023-04-24T08:18:14;3.40;;;1.90;;
7501;SDS011;3792;47.740;7.606;2023-04-24T08:20:41;5.33;;;1.97;;
7501;SDS011;3792;47.740;7.606;2023-04-24T08:23:08;4.20;;;2.00;;
7501;SDS011;3792;47.740;7.606;2023-04-24T08:25:35;3.10;;;2.07;;
7501;SDS011;3792;47.740;7.606;2023-04-24T08:28:02;4.37;;;2.13;;
7501;SDS011;3792;47.740;7.606;2023-04-24T08:30:30;2.33;;;1.90;;
7501;SDS011;3792;47.740;7.606;2023-04-24T08:32:58;3.13;;;2.03;;
7501;SDS011;3792;47.740;7.606;2023-04-24T08:35:25;3.63;;;2.40;;
7501;SDS011;3792;47.740;7.606;2023-04-24T08:37:52;3.07;;;1.70;;
7501;SDS011;3792;47.740;7.606;2023-04-24T08:40:21;3.60;;;1.73;;
7501;SDS011;3792;47.740;7.606;2023-04-24T08:42:53;4.53;;;1.77;;
7501;SDS011;3792;47.740;7.606;2023-04-24T08:45:21;4.50;;;2.30;;
7501;SDS011;3792;47.740;7.606;2023-04-24T08:47:49;3.13;;;1.90;;
7501;SDS011;3792;47.740;7.606;2023-04-24T08:50:19;4.17;;;2.07;;
7501;SDS011;3792;47.740;7.606;2023-04-24T08:52:47;2.83;;;1.90;;
7501;SDS011;3792;47.740;7.606;2023-04-24T08:55:18;3.33;;;1.67;;
7501;SDS011;3792;47.740;7.606;2023-04-24T08:57:45;3.33;;;1.90;;
7501;SDS011;3792;47.740;7.606;2023-04-24T09:00:18;4.50;;;2.23;;
7501;SDS011;3792;47.740;7.606;2023-04-24T09:02:46;5.05;;;1.98;;
7501;SDS011;3792;47.740;7.606;2023-04-24T09:05:16;3.70;;;1.50;;
7501;SDS011;3792;47.740;7.606;2023-04-24T09:07:47;4.10;;;2.30;;
7501;SDS011;3792;47.740;7.606;2023-04-24T09:10:19;3.73;;;1.73;;
7501;SDS011;3792;47.740;7.606;2023-04-24T09:12:48;2.83;;;1.70;;
7501;SDS011;3792;47.740;7.606;2023-04-24T09:15:16;1.70;;;1.60;;
7501;SDS011;3792;47.740;7.606;2023-04-24T09:17:45;2.00;;;1.80;;
7501;SDS011;3792;47.740;7.606;2023-04-24T09:20:12;3.57;;;1.73;;
7501;SDS011;3792;47.740;7.606;2023-04-24T09:22:40;3.73;;;1.87;;
7501;SDS011;3792;47.740;7.606;2023-04-24T09:25:10;1.90;;;1.57;;
7501;SDS011;3792;47.740;7.606;2023-04-24T09:27:41;2.20;;;1.70;;
7501;SDS011;3792;47.740;7.606;2023-04-24T09:30:09;2.23;;;1.50;;
7501;SDS011;3792;47.740;7.606;2023-04-24T09:32:37;2.27;;;1.53;;
7501;SDS011;3792;47.740;7.606;2023-04-24T09:35:05;3.07;;;1.47;;
7501;SDS011;3792;47.740;7.606;2023-04-24T09:37:37;2.07;;;1.60;;
7501;SDS011;3792;47.740;7.606;2023-04-24T09:40:12;2.93;;;2.00;;
7501;SDS011;3792;47.740;7.606;2023-04-24T09:42:43;1.63;;;1.53;;
7501;SDS011;3792;47.740;7.606;2023-04-24T09:45:11;3.20;;;1.60;;
7501;SDS011;3792;47.740;7.606;2023-04-24T09:47:38;2.27;;;1.70;;
7501;SDS011;3792;47.740;7.606;2023-04-24T09:50:09;1.83;;;1.50;;
7501;SDS011;3792;47.740;7.606;2023-04-24T09:52:39;3.90;;;1.53;;
7501;SDS011;3792;47.740;7.606;2023-04-24T09:55:11;2.80;;;1.60;;
7501;SDS011;3792;47.740;7.606;2023-04-24T09:57:47;3.13;;;1.70;;
7501;SDS011;3792;47.740;7.606;2023-04-24T10:00:18;4.87;;;1.90;;
7501;SDS011;3792;47.740;7.606;2023-04-24T10:02:51;1.97;;;1.50;;
7501;SDS011;3792;47.740;7.606;2023-04-24T10:05:26;3.07;;;1.60;;
7501;SDS011;3792;47.740;7.606;2023-04-24T10:07:59;2.70;;;1.67;;
7501;SDS011;3792;47.740;7.606;2023-04-24T10:10:29;2.97;;;1.60;;
7501;SDS011;3792;47.740;7.606;2023-04-24T10:12:57;2.53;;;1.60;;
7501;SDS011;3792;47.740;7.606;2023-04-24T10:15:25;2.90;;;1.80;;
7501;SDS011;3792;47.740;7.606;2023-04-24T10:17:53;2.10;;;1.57;;
7501;SDS011;3792;47.740;7.606;2023-04-24T10:20:20;2.20;;;1.80;;
7501;SDS011;3792;47.740;7.606;2023-04-24T10:22:49;1.50;;;1.40;;
7501;SDS011;3792;47.740;7.606;2023-04-24T10:25:18;3.23;;;1.50;;
7501;SDS011;3792;47.740;7.606;2023-04-24T10:27:48;4.07;;;1.87;;
7501;SDS011;3792;47.740;7.606;2023-04-24T10:30:17;3.00;;;1.67;;
7501;SDS011;3792;47.740;7.606;2023-04-24T10:32:45;3.07;;;1.90;;
7501;SDS011;3792;47.740;7.606;2023-04-24T10:35:13;3.60;;;1.73;;
7501;SDS011;3792;47.740;7.606;2023-04-24T10:37:42;6.53;;;1.80;;
7501;SDS011;3792;47.740;7.606;2023-04-24T10:40:11;2.47;;;1.90;;
7501;SDS011;3792;47.740;7.606;2023-04-24T10:42:43;2.70;;;1.90;;
7501;SDS011;3792;47.740;7.606;2023-04-24T10:45:18;2.37;;;1.70;;
7501;SDS011;3792;47.740;7.606;2023-04-24T10:47:59;5.03;;;2.10;;
7501;SDS011;3792;47.740;7.606;2023-04-24T10:50:28;2.55;;;1.80;;
7501;SDS011;3792;47.740;7.606;2023-04-24T10:53:05;5.43;;;2.10;;
7501;SDS011;3792;47.740;7.606;2023-04-24T10:55:39;3.58;;;2.00;;
7501;SDS011;3792;47.740;7.606;2023-04-24T10:58:09;3.75;;;1.80;;
7501;SDS011;3792;47.740;7.606;2023-04-24T11:00:38;3.55;;;1.83;;
7501;SDS011;3792;47.740;7.606;2023-04-24T11:03:06;1.83;;;1.30;;
7501;SDS011;3792;47.740;7.606;2023-04-24T11:05:49;3.10;;;1.67;;
7501;SDS011;3792;47.740;7.606;2023-04-24T11:08:21;2.90;;;1.53;;
7501;SDS011;3792;47.740;7.606;2023-04-24T11:11:00;2.43;;;1.50;;
7501;SDS011;3792;47.740;7.606;2023-04-24T11:16:33;3.63;;;1.53;;
7501;SDS011;3792;47.740;7.606;2023-04-24T11:19:03;2.73;;;1.23;;
7501;SDS011;3792;47.740;7.606;2023-04-24T11:21:32;3.30;;;1.70;;
7501;SDS011;3792;47.740;7.606;2023-04-24T11:24:24;3.43;;;1.40;;
7501;SDS011;3792;47.740;7.606;2023-04-24T11:26:53;4.80;;;1.70;;
7501;SDS011;3792;47.740;7.606;2023-04-24T11:29:24;4.83;;;1.27;;
7501;SDS011;3792;47.740;7.606;2023-04-24T11:32:14;2.50;;;1.70;;
7501;SDS011;3792;47.740;7.606;2023-04-24T11:34:45;2.73;;;1.53;;
7501;SDS011;3792;47.740;7.606;2023-04-24T11:37:12;2.60;;;1.63;;
7501;SDS011;3792;47.740;7.606;2023-04-24T11:39:40;3.00;;;1.70;;
7501;SDS011;3792;47.740;7.606;2023-04-24T11:42:07;2.40;;;1.80;;
7501;SDS011;3792;47.740;7.606;2023-04-24T11:44:36;3.10;;;1.50;;
7501;SDS011;3792;47.740;7.606;2023-04-24T11:47:04;2.10;;;1.67;;
7501;SDS011;3792;47.740;7.606;2023-04-24T11:49:32;4.53;;;1.50;;
7501;SDS011;3792;47.740;7.606;2023-04-24T11:51:59;1.67;;;1.50;;
7501;SDS011;3792;47.740;7.606;2023-04-24T11:54:26;1.50;;;1.10;;
7501;SDS011;3792;47.740;7.606;2023-04-24T11:56:55;2.50;;;1.73;;
7501;SDS011;3792;47.740;7.606;2023-04-24T11:59:34;1.90;;;1.30;;
7501;SDS011;3792;47.740;7.606;2023-04-24T12:02:10;2.57;;;1.50;;
7501;SDS011;3792;47.740;7.606;2023-04-24T12:04:49;2.00;;;1.77;;
7501;SDS011;3792;47.740;7.606;2023-04-24T12:07:21;2.30;;;1.70;;
7501;SDS011;3792;47.740;7.606;2023-04-24T12:09:55;2.63;;;1.50;;
7501;SDS011;3792;47.740;7.606;2023-04-24T12:12:25;2.13;;;1.67;;
7501;SDS011;3792;47.740;7.606;2023-04-24T12:14:54;4.40;;;1.63;;
7501;SDS011;3792;47.740;7.606;2023-04-24T12:17:26;3.00;;;1.73;;
7501;SDS011;3792;47.740;7.606;2023-04-24T12:19:58;3.00;;;1.83;;
7501;SDS011;3792;47.740;7.606;2023-04-24T12:22:27;2.73;;;1.70;;
7501;SDS011;3792;47.740;7.606;2023-04-24T12:24:58;1.83;;;1.67;;
7501;SDS011;3792;47.740;7.606;2023-04-24T12:27:29;2.83;;;2.10;;
7501;SDS011;3792;47.740;7.606;2023-04-24T12:29:59;2.80;;;1.60;;
7501;SDS011;3792;47.740;7.606;2023-04-24T12:32:27;2.13;;;1.83;;
7501;SDS011;3792;47.740;7.606;2023-04-24T12:34:55;3.37;;;2.23;;
7501;SDS011;3792;47.740;7.606;2023-04-24T12:37:23;2.93;;;2.27;;
7501;SDS011;3792;47.740;7.606;2023-04-24T12:39:58;2.47;;;1.67;;
7501;SDS011;3792;47.740;7.606;2023-04-24T12:42:27;3.73;;;2.33;;
7501;SDS011;3792;47.740;7.606;2023-04-24T12:45:00;1.80;;;1.70;;
7501;SDS011;3792;47.740;7.606;2023-04-24T12:47:30;2.70;;;2.10;;
7501;SDS011;3792;47.740;7.606;2023-04-24T12:49:58;1.97;;;1.80;;
7501;SDS011;3792;47.740;7.606;2023-04-24T12:52:26;2.13;;;1.70;;
7501;SDS011;3792;47.740;7.606;2023-04-24T12:54:56;4.77;;;1.73;;
7501;SDS011;3792;47.740;7.606;2023-04-24T12:57:25;1.83;;;1.73;;
7501;SDS011;3792;47.740;7.606;2023-04-24T12:59:54;2.47;;;1.87;;
7501;SDS011;3792;47.740;7.606;2023-04-24T13:02:23;4.17;;;1.90;;
7501;SDS011;3792;47.740;7.606;2023-04-24T13:04:52;2.70;;;1.90;;
7501;SDS011;3792;47.740;7.606;2023-04-24T13:07:20;2.50;;;1.73;;
7501;SDS011;3792;47.740;7.606;2023-04-24T13:09:48;3.57;;;1.80;;
7501;SDS011;3792;47.740;7.606;2023-04-24T13:12:15;2.07;;;1.83;;
7501;SDS011;3792;47.740;7.606;2023-04-24T13:14:43;3.53;;;1.73;;
7501;SDS011;3792;47.740;7.606;2023-04-24T13:17:10;1.93;;;1.70;;
7501;SDS011;3792;47.740;7.606;2023-04-24T13:19:40;3.03;;;2.00;;
7501;SDS011;3792;47.740;7.606;2023-04-24T13:22:08;2.30;;;1.90;;
7501;SDS011;3792;47.740;7.606;2023-04-24T13:24:37;3.43;;;2.30;;
7501;SDS011;3792;47.740;7.606;2023-04-24T13:27:05;5.40;;;2.00;;
7501;SDS011;3792;47.740;7.606;2023-04-24T13:29:33;5.60;;;2.00;;
7501;SDS011;3792;47.740;7.606;2023-04-24T13:32:00;3.50;;;1.50;;
7501;SDS011;3792;47.740;7.606;2023-04-24T13:34:27;2.07;;;1.87;;
7501;SDS011;3792;47.740;7.606;2023-04-24T13:36:56;2.00;;;1.80;;
7501;SDS011;3792;47.740;7.606;2023-04-24T13:39:24;3.07;;;1.67;;
7501;SDS011;3792;47.740;7.606;2023-04-24T13:41:52;3.10;;;2.37;;
7501;SDS011;3792;47.740;7.606;2023-04-24T13:44:21;2.73;;;1.53;;
7501;SDS011;3792;47.740;7.606;2023-04-24T13:46:51;3.30;;;2.10;;
7501;SDS011;3792;47.740;7.606;2023-04-24T13:49:21;2.77;;;2.07;;
7501;SDS011;3792;47.740;7.606;2023-04-24T13:51:50;2.00;;;1.80;;
7501;SDS011;3792;47.740;7.606;2023-04-24T13:54:19;2.90;;;1.90;;
7501;SDS011;3792;47.740;7.606;2023-04-24T13:56:48;2.80;;;1.73;;
7501;SDS011;3792;47.740;7.606;2023-04-24T13:59:15;3.63;;;1.63;;
7501;SDS011;3792;47.740;7.606;2023-04-24T14:01:42;1.60;;;1.50;;
7501;SDS011;3792;47.740;7.606;2023-04-24T14:04:10;3.30;;;1.90;;
7501;SDS011;3792;47.740;7.606;2023-04-24T14:06:37;4.37;;;1.50;;
7501;SDS011;3792;47.740;7.606;2023-04-24T14:09:05;2.70;;;1.73;;
7501;SDS011;3792;47.740;7.606;2023-04-24T14:11:34;2.80;;;1.50;;
7501;SDS011;3792;47.740;7.606;2023-04-24T14:14:02;1.80;;;1.70;;
7501;SDS011;3792;47.740;7.606;2023-04-24T14:16:29;1.67;;;1.50;;
7501;SDS011;3792;47.740;7.606;2023-04-24T14:18:56;3.73;;;1.50;;
7501;SDS011;3792;47.740;7.606;2023-04-24T14:21:23;2.20;;;1.70;;
7501;SDS011;3792;47.740;7.606;2023-04-24T14:23:50;3.40;;;1.80;;
7501;SDS011;3792;47.740;7.606;2023-04-24T14:26:17;3.50;;;1.77;;
7501;SDS011;3792;47.740;7.606;2023-04-24T14:28:46;2.10;;;1.83;;
7501;SDS011;3792;47.740;7.606;2023-04-24T14:31:14;1.70;;;1.60;;
7501;SDS011;3792;47.740;7.606;2023-04-24T14:33:41;1.60;;;1.50;;
7501;SDS011;3792;47.740;7.606;2023-04-24T14:36:08;3.17;;;2.20;;
7501;SDS011;3792;47.740;7.606;2023-04-24T14:38:35;3.70;;;1.70;;
7501;SDS011;3792;47.740;7.606;2023-04-24T14:41:02;2.73;;;1.87;;
7501;SDS011;3792;47.740;7.606;2023-04-24T14:43:34;3.10;;;2.30;;
7501;SDS011;3792;47.740;7.606;2023-04-24T14:46:02;3.57;;;2.40;;
7501;SDS011;3792;47.740;7.606;2023-04-24T14:48:30;3.17;;;2.03;;
7501;SDS011;3792;47.740;7.606;2023-04-24T14:50:57;2.17;;;1.90;;
7501;SDS011;3792;47.740;7.606;2023-04-24T14:53:25;3.10;;;2.13;;
7501;SDS011;3792;47.740;7.606;2023-04-24T14:55:52;3.70;;;2.30;;
7501;SDS011;3792;47.740;7.606;2023-04-24T14:58:23;2.50;;;2.30;;
7501;SDS011;3792;47.740;7.606;2023-04-24T15:00:50;3.70;;;2.30;;
7501;SDS011;3792;47.740;7.606;2023-04-24T15:03:21;2.13;;;1.93;;
7501;SDS011;3792;47.740;7.606;2023-04-24T15:05:48;3.37;;;2.40;;
7501;SDS011;3792;47.740;7.606;2023-04-24T15:08:15;3.73;;;2.20;;
7501;SDS011;3792;47.740;7.606;2023-04-24T15:10:43;2.30;;;2.10;;
7501;SDS011;3792;47.740;7.606;2023-04-24T15:13:10;2.60;;;1.93;;
7501;SDS011;3792;47.740;7.606;2023-04-24T15:15:37;3.97;;;2.10;;
7501;SDS011;3792;47.740;7.606;2023-04-24T15:18:05;3.07;;;2.10;;
7501;SDS011;3792;47.740;7.606;2023-04-24T15:20:35;3.33;;;2.37;;
7501;SDS011;3792;47.740;7.606;2023-04-24T15:23:04;3.33;;;2.10;;
7501;SDS011;3792;47.740;7.606;2023-04-24T15:25:31;2.53;;;2.13;;